Time;durP1;ratioP1;P1;durP2;ratioP2;P2;SDS_P1;SDS_P2;PMS_P1;PMS_P2;Temp;Humidity;BMP_temperature;BMP_pressure;BME280_temperature;BME280_humidity;BME280_pressure;Samples;Min_cycle;Max_cycle;Signal;HPM_P1;HPM_P2
2023/06/14 00:02:20;;;;;;;3.83;3.50;;;;;;;17.79;41.82;98871.53;5017795;28;20221;-78
2023/06/14 00:04:48;;;;;;;5.00;3.80;;;;;;;17.87;41.38;98871.56;5020182;28;20456;-79
2023/06/14 00:07:16;;;;;;;4.70;4.00;;;;;;;17.92;41.08;98879.88;5006922;28;20268;-79
2023/06/14 00:09:41;;;;;;;5.07;4.03;;;;;;;17.93;40.83;98872.75;5003336;28;20474;-78
2023/06/14 00:12:08;;;;;;;9.13;3.70;;;;;;;17.95;40.87;98870.75;5015265;28;20532;-78
2023/06/14 00:14:33;;;;;;;4.20;3.80;;;;;;;17.87;40.76;98866.25;5009547;28;20280;-79
2023/06/14 00:16:59;;;;;;;5.03;3.87;;;;;;;17.82;40.72;98873.88;5005256;28;20480;-78
2023/06/14 00:19:25;;;;;;;6.17;4.67;;;;;;;17.83;40.85;98864.91;5013263;28;20216;-78
2023/06/14 00:21:52;;;;;;;6.37;4.33;;;;;;;17.84;40.81;98861.25;5013038;28;20210;-79
2023/06/14 00:24:18;;;;;;;4.00;3.70;;;;;;;17.84;40.74;98877.19;5020785;28;21114;-78
2023/06/14 00:26:43;;;;;;;4.17;3.80;;;;;;;17.78;41.02;98877.81;5009972;28;20525;-79
2023/06/14 00:29:09;;;;;;;4.73;3.93;;;;;;;17.73;41.17;98869.50;4987341;28;20249;-78
2023/06/14 00:31:35;;;;;;;4.77;3.73;;;;;;;17.65;41.29;98872.94;5016846;28;20219;-78
2023/06/14 00:34:01;;;;;;;4.80;4.30;;;;;;;17.56;42.03;98867.78;5007914;28;20458;-79
2023/06/14 00:36:26;;;;;;;5.97;4.53;;;;;;;17.47;42.82;98872.22;5001334;28;20610;-79
2023/06/14 00:38:51;;;;;;;5.17;4.73;;;;;;;17.34;43.06;98872.69;5020009;28;20220;-79
2023/06/14 00:41:17;;;;;;;6.10;4.20;;;;;;;17.24;43.51;98871.97;4985871;28;20442;-79
2023/06/14 00:43:42;;;;;;;4.83;4.33;;;;;;;17.07;43.93;98873.69;5008601;28;20229;-79
2023/06/14 00:46:08;;;;;;;4.67;4.20;;;;;;;16.89;44.66;98880.88;4991488;28;20222;-79
2023/06/14 00:48:36;;;;;;;5.50;3.70;;;;;;;16.71;45.03;98878.22;5011994;28;20299;-79
2023/06/14 00:51:03;;;;;;;6.73;4.30;;;;;;;16.53;45.65;98873.78;5013787;28;20206;-79
2023/06/14 00:53:31;;;;;;;5.40;4.57;;;;;;;16.40;45.92;98870.69;5005360;28;20477;-79
2023/06/14 00:55:57;;;;;;;5.33;4.40;;;;;;;16.28;46.14;98878.06;4993496;28;20546;-79
2023/06/14 00:58:22;;;;;;;4.23;3.57;;;;;;;16.24;46.25;98870.56;5005171;28;20458;-79
2023/06/14 01:00:48;;;;;;;4.30;3.90;;;;;;;16.22;46.10;98877.81;5008454;28;20199;-79
2023/06/14 01:03:18;;;;;;;4.80;4.07;;;;;;;16.23;46.10;98882.97;4993356;28;20194;-79
2023/06/14 01:05:44;;;;;;;4.73;4.23;;;;;;;16.29;45.93;98884.19;4992117;28;20487;-78
2023/06/14 01:08:20;;;;;;;5.17;4.00;;;;;;;16.34;46.03;98881.91;5011082;28;20486;-78
2023/06/14 01:10:56;;;;;;;5.60;4.67;;;;;;;16.37;45.75;98871.84;4985722;28;20210;-79
2023/06/14 01:13:29;;;;;;;5.83;4.17;;;;;;;16.40;45.68;98889.25;5006602;28;20476;-79
2023/06/14 01:15:56;;;;;;;5.70;4.20;;;;;;;16.43;45.66;98885.47;4994406;28;20483;-79
2023/06/14 01:18:24;;;;;;;4.53;4.13;;;;;;;16.40;45.77;98886.59;5005413;28;20469;-79
2023/06/14 01:20:49;;;;;;;5.67;3.73;;;;;;;16.38;45.86;98893.88;5005950;28;20477;-79
2023/06/14 01:23:22;;;;;;;9.23;4.60;;;;;;;16.36;45.98;98887.88;5009711;28;20475;-79
2023/06/14 01:25:52;;;;;;;4.77;4.37;;;;;;;16.28;46.29;98888.66;5013324;28;20456;-79
2023/06/14 01:28:19;;;;;;;4.97;4.60;;;;;;;16.25;46.28;98885.47;5010749;28;22579;-79
2023/06/14 01:30:53;;;;;;;6.53;4.27;;;;;;;16.18;46.48;98885.25;5002796;28;20451;-78
2023/06/14 01:33:21;;;;;;;5.17;4.67;;;;;;;16.09;46.82;98884.34;4978006;28;20742;-79
2023/06/14 01:35:49;;;;;;;5.67;4.43;;;;;;;16.00;47.10;98881.75;5009770;28;20474;-79
2023/06/14 01:38:17;;;;;;;4.80;4.33;;;;;;;15.89;47.19;98890.75;5002098;28;20532;-78
2023/06/14 01:40:47;;;;;;;5.27;4.40;;;;;;;15.81;47.27;98894.13;5004208;28;20462;-79
2023/06/14 01:43:14;;;;;;;5.67;3.97;;;;;;;15.79;47.23;98892.59;4983464;28;20506;-79
2023/06/14 01:45:41;;;;;;;5.03;4.47;;;;;;;15.77;47.26;98881.31;5001708;28;20521;-79
2023/06/14 01:48:07;;;;;;;4.20;3.80;;;;;;;15.64;47.82;98887.78;5004190;28;20465;-79
2023/06/14 01:50:33;;;;;;;4.87;4.47;;;;;;;15.52;48.22;98891.59;5006535;28;20485;-78
2023/06/14 01:52:59;;;;;;;6.33;4.70;;;;;;;15.40;48.35;98883.03;4981436;28;20825;-79
2023/06/14 01:55:24;;;;;;;5.17;4.30;;;;;;;15.36;48.33;98886.94;5009811;28;20229;-79
2023/06/14 01:57:51;;;;;;;5.70;4.80;;;;;;;15.37;48.01;98887.78;4993318;28;20226;-79
2023/06/14 02:00:18;;;;;;;8.18;4.60;;;;;;;15.34;48.11;98882.75;4985231;28;20237;-79
2023/06/14 02:02:44;;;;;;;5.05;4.55;;;;;;;15.36;48.02;98886.09;5001367;28;20221;-79
2023/06/14 02:05:10;;;;;;;7.88;5.03;;;;;;;15.41;48.09;98878.56;4978148;28;22527;-78
2023/06/14 02:07:36;;;;;;;4.83;4.43;;;;;;;15.42;48.06;98886.38;5017169;28;20306;-78
2023/06/14 02:10:02;;;;;;;4.50;4.10;;;;;;;15.42;48.01;98886.38;4984042;28;20549;-79
2023/06/14 02:12:28;;;;;;;5.22;4.05;;;;;;;15.44;47.81;98878.25;5001338;28;20470;-77
2023/06/14 02:14:54;;;;;;;4.63;4.23;;;;;;;15.46;47.70;98890.38;5008271;28;20256;-79
2023/06/14 02:17:20;;;;;;;5.10;3.80;;;;;;;15.48;47.49;98887.59;4997527;28;21382;-79
2023/06/14 02:19:45;;;;;;;4.30;3.45;;;;;;;15.48;47.44;98883.13;5000705;28;20481;-79
2023/06/14 02:22:11;;;;;;;5.63;4.77;;;;;;;15.54;47.27;98891.47;4994464;28;20221;-79
2023/06/14 02:24:36;;;;;;;4.97;3.63;;;;;;;15.59;47.17;98892.69;4996054;28;20244;-78
2023/06/14 02:27:02;;;;;;;4.60;3.90;;;;;;;15.66;46.93;98890.28;5007579;28;20314;-79
2023/06/14 02:29:27;;;;;;;4.67;4.27;;;;;;;15.68;47.07;98883.03;4997657;28;20581;-79
2023/06/14 02:31:53;;;;;;;6.67;4.33;;;;;;;15.64;46.85;98890.44;5006894;28;20226;-78
2023/06/14 02:34:21;;;;;;;4.88;4.38;;;;;;;15.63;46.94;98888.75;4991301;28;20240;-79
2023/06/14 02:36:47;;;;;;;4.97;4.00;;;;;;;15.63;46.79;98894.03;4989510;28;20288;-79
2023/06/14 02:39:13;;;;;;;4.95;4.53;;;;;;;15.61;46.82;98889.91;4986137;28;20231;-78
2023/06/14 02:41:39;;;;;;;4.80;4.40;;;;;;;15.59;46.84;98891.84;5006246;28;20230;-79
2023/06/14 02:44:04;;;;;;;4.10;3.70;;;;;;;15.53;47.04;98888.00;5010184;28;20217;-79
2023/06/14 02:46:30;;;;;;;4.77;4.17;;;;;;;15.45;47.28;98890.53;5004037;28;20273;-78
2023/06/14 02:48:59;;;;;;;7.80;5.60;;;;;;;15.33;47.48;98891.69;5003053;28;20222;-78
2023/06/14 02:51:24;;;;;;;4.60;4.30;;;;;;;15.23;47.76;98897.84;5005220;28;20998;-79
2023/06/14 02:53:50;;;;;;;3.93;3.63;;;;;;;15.12;48.26;98900.69;4995751;28;20246;-78
2023/06/14 02:56:17;;;;;;;6.55;4.63;;;;;;;14.96;48.51;98900.44;5002287;28;20344;-79
2023/06/14 02:58:42;;;;;;;5.97;3.85;;;;;;;14.75;49.38;98892.69;5003912;28;20217;-79
2023/06/14 03:01:12;;;;;;;4.60;4.30;;;;;;;14.50;50.38;98904.63;5002450;28;20220;-78
2023/06/14 03:03:38;;;;;;;4.90;4.40;;;;;;;14.39;50.46;98914.38;4989690;28;20261;-78
2023/06/14 03:06:04;;;;;;;5.20;4.50;;;;;;;14.37;50.37;98907.56;5011217;28;20215;-79
2023/06/14 03:08:38;;;;;;;6.50;4.50;;;;;;;14.35;50.78;98912.97;4984657;28;20221;-79
2023/06/14 03:11:06;;;;;;;5.38;4.85;;;;;;;14.21;51.09;98921.31;4991367;28;20231;-79
2023/06/14 03:13:37;;;;;;;5.82;4.25;;;;;;;14.13;51.31;98926.47;4985731;28;20443;-79
2023/06/14 03:16:04;;;;;;;4.20;3.90;;;;;;;14.02;51.49;98930.06;4983953;28;20195;-78
2023/06/14 03:18:35;;;;;;;6.38;4.93;;;;;;;14.00;51.60;98923.25;4986962;28;20230;-79
2023/06/14 03:21:02;;;;;;;4.68;4.20;;;;;;;14.01;51.52;98933.66;4999193;28;20219;-79
2023/06/14 03:23:29;;;;;;;5.47;4.55;;;;;;;14.03;51.04;98937.00;4985535;28;20201;-80
2023/06/14 03:25:55;;;;;;;5.15;4.50;;;;;;;14.07;50.96;98934.91;4982344;28;20762;-80
2023/06/14 03:28:21;;;;;;;5.33;4.33;;;;;;;14.05;51.13;98945.63;4979115;28;20218;-79
2023/06/14 03:30:46;;;;;;;5.30;4.80;;;;;;;14.03;51.35;98946.72;4972419;28;20228;-79
2023/06/14 03:33:12;;;;;;;11.43;4.40;;;;;;;13.99;51.48;98950.59;4977172;28;20214;-80
2023/06/14 03:35:39;;;;;;;5.40;4.90;;;;;;;13.94;51.66;98945.75;4974542;28;20440;-79
2023/06/14 03:38:05;;;;;;;5.17;4.67;;;;;;;13.89;52.11;98942.66;4987044;28;20266;-79
2023/06/14 03:40:31;;;;;;;4.80;4.30;;;;;;;13.86;51.92;98943.78;4977030;28;21769;-80
2023/06/14 03:43:01;;;;;;;7.22;4.75;;;;;;;13.81;52.22;98948.63;4991600;28;20209;-79
2023/06/14 03:45:27;;;;;;;4.83;4.30;;;;;;;13.78;52.38;98943.59;4983111;28;20193;-79
2023/06/14 03:47:54;;;;;;;5.67;4.77;;;;;;;13.77;52.22;98951.66;4980497;28;20472;-80
2023/06/14 03:50:20;;;;;;;5.32;4.78;;;;;;;13.76;52.28;98953.47;4973390;28;20447;-79
2023/06/14 03:52:48;;;;;;;5.43;4.40;;;;;;;13.75;52.04;98951.81;4998312;28;20202;-80
2023/06/14 03:55:16;;;;;;;5.68;5.18;;;;;;;13.76;52.13;98955.28;4979086;28;20364;-80
2023/06/14 03:57:42;;;;;;;4.90;4.45;;;;;;;13.76;51.90;98958.75;4987969;28;20203;-79
2023/06/14 04:00:12;;;;;;;5.45;4.95;;;;;;;13.78;51.95;98962.09;4993223;28;20715;-79
2023/06/14 04:02:40;;;;;;;5.03;4.35;;;;;;;13.80;51.93;98962.78;4999022;28;20220;-79
2023/06/14 04:05:08;;;;;;;5.13;4.10;;;;;;;13.82;51.98;98963.47;4984370;28;20195;-80
2023/06/14 04:07:44;;;;;;;6.25;5.65;;;;;;;13.82;52.13;98967.91;4982550;28;20211;-79
2023/06/14 04:10:11;;;;;;;8.00;5.32;;;;;;;13.83;52.09;98969.63;4977695;28;20728;-79
2023/06/14 04:12:37;;;;;;;4.82;4.43;;;;;;;13.84;52.10;98969.47;4979784;28;20197;-79
2023/06/14 04:15:03;;;;;;;5.70;4.50;;;;;;;13.93;51.77;98970.44;4981366;28;20184;-79
2023/06/14 04:17:29;;;;;;;5.70;5.20;;;;;;;14.06;51.49;98970.22;4979685;28;20203;-79
2023/06/14 04:19:55;;;;;;;5.50;5.00;;;;;;;14.17;51.27;98972.75;4992480;28;20286;-80
2023/06/14 04:22:20;;;;;;;5.30;4.37;;;;;;;14.31;50.93;98975.00;4991716;28;20204;-79
2023/06/14 04:24:46;;;;;;;5.50;4.70;;;;;;;14.37;51.18;98986.84;5004394;28;20199;-80
2023/06/14 04:27:11;;;;;;;4.73;4.33;;;;;;;14.38;50.97;98983.22;4982408;28;20200;-79
2023/06/14 04:29:38;;;;;;;5.07;4.60;;;;;;;14.32;51.09;98978.47;4981224;28;20203;-79
2023/06/14 04:32:09;;;;;;;5.78;5.15;;;;;;;14.23;51.31;98993.34;4985152;28;20446;-79
2023/06/14 04:34:37;;;;;;;6.35;5.15;;;;;;;14.11;51.87;98999.69;4994361;28;20257;-80
2023/06/14 04:37:03;;;;;;;6.05;5.25;;;;;;;14.07;51.89;98993.88;4986097;28;20204;-78
2023/06/14 04:39:35;;;;;;;5.75;4.50;;;;;;;14.10;51.74;99000.69;4983733;28;20203;-79
2023/06/14 04:42:03;;;;;;;5.50;5.00;;;;;;;14.15;51.89;99001.13;4985404;28;20233;-79
2023/06/14 04:44:32;;;;;;;5.43;4.13;;;;;;;14.21;52.16;99005.84;4980341;28;20212;-80
2023/06/14 04:47:00;;;;;;;4.57;3.72;;;;;;;14.44;51.67;99010.88;5004414;28;20196;-78
2023/06/14 04:49:27;;;;;;;7.03;4.90;;;;;;;14.88;51.11;99016.66;4987492;28;20212;-78
2023/06/14 04:51:57;;;;;;;6.13;4.70;;;;;;;15.45;49.60;99009.63;4981654;28;20207;-79
2023/06/14 04:54:25;;;;;;;5.57;4.25;;;;;;;16.15;48.15;99008.25;4984819;28;20199;-79
2023/06/14 04:56:51;;;;;;;5.63;4.05;;;;;;;16.89;46.60;99008.19;4987414;28;20208;-78
2023/06/14 04:59:18;;;;;;;5.93;4.53;;;;;;;17.57;45.23;99002.22;4986921;28;20308;-78
2023/06/14 05:01:49;;;;;;;5.90;4.57;;;;;;;18.25;43.70;99002.22;4980841;28;20413;-79
2023/06/14 05:04:15;;;;;;;5.57;4.47;;;;;;;18.76;42.86;99003.00;4981228;28;20290;-78
2023/06/14 05:06:45;;;;;;;4.80;4.00;;;;;;;19.11;42.18;99009.00;4979545;28;20466;-76
2023/06/14 05:09:14;;;;;;;7.03;4.40;;;;;;;19.52;41.45;99003.63;5000537;28;20461;-76
2023/06/14 05:11:42;;;;;;;5.10;4.50;;;;;;;20.02;40.73;99002.53;4967032;28;20559;-78
2023/06/14 05:14:07;;;;;;;5.20;4.70;;;;;;;20.54;39.43;99009.94;4976660;28;20443;-78
2023/06/14 05:16:33;;;;;;;4.87;4.10;;;;;;;20.99;38.64;99005.63;4974355;28;20483;-80
2023/06/14 05:18:59;;;;;;;5.10;4.30;;;;;;;21.47;37.83;99005.41;4969786;28;20540;-80
2023/06/14 05:21:25;;;;;;;5.70;4.20;;;;;;;21.96;36.78;99001.38;4974813;28;20189;-81
2023/06/14 05:23:51;;;;;;;10.20;5.37;;;;;;;22.41;36.14;98999.44;4979735;28;20302;-80
2023/06/14 05:26:16;;;;;;;5.73;5.03;;;;;;;22.84;35.32;98996.81;4975029;28;20443;-80
2023/06/14 05:28:42;;;;;;;7.73;4.43;;;;;;;23.19;34.89;98990.56;4972728;28;20439;-81
2023/06/14 05:31:07;;;;;;;7.53;4.97;;;;;;;23.46;34.43;98992.59;4968935;28;20306;-82
2023/06/14 05:33:32;;;;;;;5.97;5.47;;;;;;;23.65;34.15;99002.63;4973254;28;20263;-80
2023/06/14 05:35:58;;;;;;;5.43;5.03;;;;;;;23.80;33.57;98998.00;4965218;28;20238;-81
2023/06/14 05:38:23;;;;;;;6.13;5.53;;;;;;;24.06;33.29;99001.84;4972997;28;20205;-80
2023/06/14 05:40:49;;;;;;;7.30;4.73;;;;;;;24.34;32.96;99006.31;4970155;28;20197;-80
2023/06/14 05:43:14;;;;;;;6.27;5.43;;;;;;;24.55;32.63;99008.03;4981787;28;20608;-80
2023/06/14 05:45:40;;;;;;;5.77;5.23;;;;;;;24.66;32.45;99012.84;4971136;28;20335;-81
2023/06/14 05:48:05;;;;;;;7.83;5.17;;;;;;;24.82;32.35;99015.13;4977382;28;20279;-81
2023/06/14 05:50:30;;;;;;;6.13;5.63;;;;;;;24.96;32.08;99015.97;4971442;28;20180;-81
2023/06/14 05:52:56;;;;;;;5.60;5.10;;;;;;;25.11;31.72;99007.72;4973051;28;20188;-80
2023/06/14 05:55:21;;;;;;;6.07;5.47;;;;;;;25.27;31.82;99018.06;4970846;28;20260;-81
2023/06/14 05:57:50;;;;;;;6.17;5.57;;;;;;;25.46;31.42;99012.91;4970981;28;20208;-81
2023/06/14 06:00:17;;;;;;;5.87;5.27;;;;;;;25.50;31.28;99014.16;4977393;28;20196;-82
2023/06/14 06:02:47;;;;;;;7.03;5.50;;;;;;;25.69;30.87;99007.91;4978567;28;20442;-79
2023/06/14 06:05:19;;;;;;;7.65;6.18;;;;;;;26.02;30.62;99004.31;4967707;28;20503;-80
2023/06/14 06:07:45;;;;;;;6.13;5.53;;;;;;;26.17;30.06;99012.16;4995960;28;20196;-81
2023/06/14 06:10:11;;;;;;;7.73;5.50;;;;;;;26.38;29.87;99009.16;4986543;28;20438;-81
2023/06/14 06:12:37;;;;;;;6.13;5.63;;;;;;;26.60;29.64;99008.84;4973440;28;20442;-82
2023/06/14 06:15:03;;;;;;;6.77;5.57;;;;;;;26.75;28.84;99012.06;4994251;28;21314;-82
2023/06/14 06:17:28;;;;;;;7.43;6.00;;;;;;;26.83;29.01;99013.69;4992049;28;20227;-80
2023/06/14 06:19:54;;;;;;;8.13;5.17;;;;;;;26.93;28.90;99009.47;4995959;28;20472;-81
2023/06/14 06:22:19;;;;;;;6.00;5.40;;;;;;;27.09;28.48;99013.50;4984155;28;20248;-80
2023/06/14 06:24:45;;;;;;;7.57;6.20;;;;;;;27.14;28.00;99016.38;4983585;28;20344;-82
2023/06/14 06:27:12;;;;;;;7.13;5.70;;;;;;;27.22;27.76;99015.31;4994794;28;20216;-80
2023/06/14 06:29:37;;;;;;;7.13;6.20;;;;;;;27.18;28.23;99007.88;4994391;28;20219;-82
2023/06/14 06:32:03;;;;;;;7.70;7.00;;;;;;;27.23;28.04;99018.81;5002289;28;20460;-81
2023/06/14 06:34:28;;;;;;;6.60;5.90;;;;;;;27.25;27.59;99020.25;4971407;28;20206;-82
2023/06/14 06:36:55;;;;;;;7.60;6.20;;;;;;;27.36;27.64;99021.41;4991054;28;20248;-81
2023/06/14 06:39:20;;;;;;;6.30;5.70;;;;;;;27.62;27.65;99022.19;4986569;28;20213;-80
2023/06/14 06:41:46;;;;;;;6.00;5.30;;;;;;;27.79;26.99;99025.97;4990354;28;20509;-80
2023/06/14 06:44:12;;;;;;;6.60;5.27;;;;;;;27.91;26.96;99023.38;4993464;28;20201;-82
2023/06/14 06:49:18;;;;;;;10.13;6.37;;;;;;;28.02;26.55;99031.53;4963070;28;21234;-78
2023/06/14 06:52:00;;;;;;;5.07;4.67;;;;;;;28.09;26.19;99030.66;4961334;28;20464;-79
2023/06/14 06:54:26;;;;;;;6.10;5.60;;;;;;;28.17;26.08;99027.66;4964813;28;20261;-80
2023/06/14 06:56:51;;;;;;;7.47;5.40;;;;;;;28.20;26.36;99022.63;4959418;28;20486;-77
2023/06/14 06:59:17;;;;;;;7.13;5.53;;;;;;;28.26;26.51;99030.88;4960902;28;20237;-77
2023/06/14 07:01:42;;;;;;;6.10;4.67;;;;;;;28.21;26.22;99029.66;4959377;28;20244;-77
2023/06/14 07:04:08;;;;;;;6.47;5.03;;;;;;;28.09;26.01;99036.88;4970555;28;20210;-77
2023/06/14 07:06:33;;;;;;;6.38;5.78;;;;;;;28.06;26.00;99031.09;4967271;28;21173;-79
2023/06/14 07:09:01;;;;;;;7.07;4.50;;;;;;;28.14;25.98;99030.78;4949032;28;20212;-77
2023/06/14 07:11:27;;;;;;;8.60;5.80;;;;;;;28.28;25.97;99029.59;4959727;28;20216;-77
2023/06/14 07:13:52;;;;;;;6.80;5.53;;;;;;;28.48;25.61;99031.25;4976781;28;20477;-79
2023/06/14 07:16:18;;;;;;;5.20;4.73;;;;;;;28.65;25.18;99035.78;4967528;28;20488;-77
2023/06/14 07:18:44;;;;;;;5.63;5.03;;;;;;;28.57;25.28;99022.59;4957864;28;20226;-77
2023/06/14 07:21:09;;;;;;;6.43;5.20;;;;;;;28.60;25.38;99029.44;4969657;28;20214;-77
2023/06/14 07:23:35;;;;;;;5.77;5.20;;;;;;;28.66;24.95;99031.22;4961529;28;20461;-77
2023/06/14 07:26:00;;;;;;;5.60;5.00;;;;;;;28.56;25.26;99033.63;4952859;28;21023;-79
2023/06/14 07:28:26;;;;;;;6.20;5.60;;;;;;;28.50;25.64;99032.66;4936764;28;20204;-78
2023/06/14 07:30:51;;;;;;;5.90;5.00;;;;;;;28.60;25.57;99032.94;4958339;28;20253;-76
2023/06/14 07:33:17;;;;;;;8.20;6.20;;;;;;;28.59;25.56;99039.38;4952777;28;20226;-79
2023/06/14 07:35:42;;;;;;;5.53;4.00;;;;;;;28.70;25.42;99036.97;4960764;28;20225;-78
2023/06/14 07:38:08;;;;;;;7.17;5.40;;;;;;;28.83;25.26;99034.06;4964275;28;20204;-79
2023/06/14 07:40:33;;;;;;;5.70;4.63;;;;;;;28.97;25.24;99034.69;4967951;28;20212;-79
2023/06/14 07:42:59;;;;;;;10.03;6.20;;;;;;;29.19;25.07;99040.41;4958600;28;20211;-77
2023/06/14 07:45:24;;;;;;;7.80;5.63;;;;;;;29.27;24.80;99046.34;4956141;28;20200;-77
2023/06/14 07:47:49;;;;;;;6.77;5.17;;;;;;;29.37;24.83;99037.63;4966473;28;20653;-77
2023/06/14 07:50:15;;;;;;;4.70;4.30;;;;;;;29.58;24.57;99038.13;4964401;28;20277;-77
2023/06/14 07:52:40;;;;;;;7.63;5.23;;;;;;;29.74;24.57;99032.84;4959214;28;20287;-79
2023/06/14 07:55:06;;;;;;;5.77;4.70;;;;;;;29.90;24.69;99033.19;4961951;28;20229;-78
2023/06/14 07:57:32;;;;;;;13.07;7.40;;;;;;;30.08;24.66;99033.00;4954441;28;20264;-78
2023/06/14 07:59:57;;;;;;;5.47;4.93;;;;;;;30.08;24.56;99033.00;4957620;28;20214;-78
2023/06/14 08:02:23;;;;;;;5.87;4.90;;;;;;;30.01;24.49;99032.34;4955302;28;20273;-77
2023/06/14 08:04:48;;;;;;;5.57;4.90;;;;;;;29.80;24.64;99033.78;4958458;28;20286;-78
2023/06/14 08:07:14;;;;;;;6.07;4.53;;;;;;;29.50;24.93;99025.75;4951550;28;20211;-79
2023/06/14 08:09:40;;;;;;;6.10;5.50;;;;;;;29.28;24.99;99029.03;4956712;28;20237;-77
2023/06/14 08:12:12;;;;;;;6.53;6.03;;;;;;;29.12;25.46;99024.31;4955821;28;20483;-77
2023/06/14 08:14:39;;;;;;;7.33;4.73;;;;;;;29.17;25.35;99020.91;4967672;28;20254;-79
2023/06/14 08:17:05;;;;;;;7.07;5.23;;;;;;;29.20;25.06;99032.09;4951091;28;20521;-77
2023/06/14 08:19:31;;;;;;;5.90;5.20;;;;;;;29.26;24.92;99035.75;4953634;28;20468;-78
2023/06/14 08:21:57;;;;;;;5.83;5.17;;;;;;;29.01;25.10;99025.09;4962599;28;20206;-77
2023/06/14 08:24:26;;;;;;;4.67;4.20;;;;;;;28.76;24.98;99026.09;4958525;28;20215;-77
2023/06/14 08:26:53;;;;;;;4.57;4.10;;;;;;;28.52;25.21;99025.16;4952315;28;20472;-79
2023/06/14 08:29:19;;;;;;;4.50;4.10;;;;;;;28.34;25.08;99025.97;4959808;28;20466;-79
2023/06/14 08:31:44;;;;;;;6.07;4.97;;;;;;;28.26;25.11;99023.59;4965235;28;20483;-79
2023/06/14 08:34:09;;;;;;;5.30;4.50;;;;;;;28.16;25.20;99021.41;4951990;28;20470;-78
2023/06/14 08:36:35;;;;;;;5.27;4.83;;;;;;;28.05;25.30;99014.06;4960498;28;20216;-77
2023/06/14 08:39:01;;;;;;;6.53;5.23;;;;;;;28.11;25.42;99012.34;4960040;28;20208;-77
2023/06/14 08:41:29;;;;;;;8.70;4.70;;;;;;;28.22;25.19;99009.72;4967905;28;20475;-78
2023/06/14 08:43:55;;;;;;;8.53;4.40;;;;;;;28.32;25.35;99009.16;4957264;28;20463;-78
2023/06/14 08:46:22;;;;;;;4.50;3.73;;;;;;;28.36;24.96;99010.38;4955334;28;20499;-77
2023/06/14 08:48:52;;;;;;;5.60;4.37;;;;;;;28.34;25.27;99009.78;4962205;28;21465;-78
2023/06/14 08:51:22;;;;;;;6.00;4.53;;;;;;;28.48;24.96;99007.75;4960582;28;20459;-77
2023/06/14 08:53:58;;;;;;;6.57;4.27;;;;;;;28.53;24.51;99013.28;4960024;28;20507;-79
2023/06/14 08:56:27;;;;;;;4.77;4.37;;;;;;;28.55;24.45;98999.56;4958711;28;20487;-78
2023/06/14 08:58:54;;;;;;;4.93;4.03;;;;;;;28.47;24.96;99008.81;4959484;28;20463;-78
2023/06/14 09:01:21;;;;;;;6.67;4.77;;;;;;;28.50;24.79;99015.63;4957345;28;20555;-79
2023/06/14 09:03:48;;;;;;;8.90;4.73;;;;;;;28.55;24.68;99016.59;4957738;28;20564;-78
2023/06/14 09:06:15;;;;;;;7.63;4.70;;;;;;;28.59;24.34;99011.56;4954644;28;20466;-77
2023/06/14 09:08:46;;;;;;;8.13;4.97;;;;;;;28.56;24.58;99020.13;4934183;28;20464;-79
2023/06/14 09:11:13;;;;;;;6.63;4.67;;;;;;;28.55;24.74;99011.19;4959944;28;20457;-78
2023/06/14 09:13:39;;;;;;;4.87;4.47;;;;;;;28.70;24.81;99020.75;4948777;28;20506;-79
2023/06/14 09:16:05;;;;;;;6.63;4.40;;;;;;;28.72;24.62;99011.38;4937476;28;20489;-78
2023/06/14 09:18:38;;;;;;;6.10;4.77;;;;;;;28.74;24.39;99016.56;4962126;28;20934;-76
2023/06/14 09:21:08;;;;;;;4.73;4.03;;;;;;;28.86;24.45;99007.41;4965559;28;20498;-79
2023/06/14 09:23:40;;;;;;;4.90;4.40;;;;;;;28.96;24.57;99008.72;4961840;28;20471;-77
2023/06/14 09:26:13;;;;;;;5.03;4.63;;;;;;;29.00;24.55;99010.75;4963462;28;20511;-76
2023/06/14 09:28:45;;;;;;;9.93;4.00;;;;;;;29.16;24.59;99020.06;4964965;28;21225;-78
2023/06/14 09:31:16;;;;;;;7.07;4.07;;;;;;;29.32;24.34;99018.56;4954546;28;20452;-78
2023/06/14 09:33:47;;;;;;;7.20;4.50;;;;;;;29.36;24.04;99019.75;4954246;28;20458;-79
2023/06/14 09:36:16;;;;;;;5.07;4.27;;;;;;;29.51;24.00;99020.09;4951300;28;20472;-79
2023/06/14 09:38:42;;;;;;;4.80;4.40;;;;;;;29.58;24.00;99017.28;4957429;28;20455;-76
2023/06/14 09:41:07;;;;;;;6.60;4.70;;;;;;;29.58;23.42;99017.28;4950095;28;20450;-77
2023/06/14 09:43:33;;;;;;;5.23;4.43;;;;;;;29.55;23.93;99021.28;4954408;28;20203;-77
2023/06/14 09:46:01;;;;;;;4.80;4.20;;;;;;;29.60;23.76;99020.59;4953522;28;20221;-77
2023/06/14 09:48:26;;;;;;;6.80;5.70;;;;;;;29.56;23.86;99024.81;4951001;28;20547;-79
2023/06/14 09:50:55;;;;;;;5.87;4.80;;;;;;;29.49;23.57;99018.72;4957446;28;21019;-77
2023/06/14 09:53:24;;;;;;;6.10;4.90;;;;;;;29.46;23.77;99021.84;4951158;28;20202;-79
2023/06/14 09:55:54;;;;;;;5.17;4.67;;;;;;;29.44;24.10;99026.72;4953367;28;20545;-77
2023/06/14 09:58:22;;;;;;;5.07;4.50;;;;;;;29.42;24.06;99023.41;4945087;28;20471;-79
2023/06/14 10:00:51;;;;;;;4.80;4.37;;;;;;;29.37;23.74;99015.97;4956236;28;20829;-78
2023/06/14 10:03:23;;;;;;;4.67;3.97;;;;;;;29.41;23.43;99013.63;4954661;28;20527;-77
2023/06/14 10:05:50;;;;;;;6.13;4.40;;;;;;;29.44;23.48;99015.88;4956745;28;20529;-79
2023/06/14 10:08:25;;;;;;;5.87;5.23;;;;;;;29.45;23.40;99007.50;4968306;28;20987;-80
2023/06/14 10:10:51;;;;;;;4.73;4.33;;;;;;;29.63;23.48;99011.19;4957096;28;20467;-78
2023/06/14 10:13:16;;;;;;;5.50;5.00;;;;;;;29.80;23.36;99014.00;4953840;28;20480;-77
2023/06/14 10:15:50;;;;;;;5.50;4.57;;;;;;;29.92;23.16;99003.97;4952996;28;20329;-78
2023/06/14 10:18:34;;;;;;;5.40;4.70;;;;;;;29.98;23.21;99005.75;4962193;28;20286;-79
2023/06/14 10:21:08;;;;;;;6.90;5.03;;;;;;;30.02;23.44;98997.94;4956790;28;20469;-77
2023/06/14 10:23:40;;;;;;;5.13;4.20;;;;;;;30.05;22.62;99006.41;4957051;28;21063;-78
2023/06/14 10:26:05;;;;;;;5.63;4.27;;;;;;;30.03;22.79;99000.44;4952485;28;20469;-78
2023/06/14 10:28:32;;;;;;;6.17;5.40;;;;;;;30.14;22.81;98991.44;4956198;28;20545;-78
2023/06/14 10:31:09;;;;;;;7.60;4.37;;;;;;;30.25;22.57;98992.50;4960159;28;20216;-78
2023/06/14 10:33:52;;;;;;;5.37;4.30;;;;;;;30.35;22.36;98984.59;4955733;28;20498;-79
2023/06/14 10:36:30;;;;;;;7.60;5.33;;;;;;;30.43;22.71;98978.78;4960470;28;20474;-78
2023/06/14 10:38:59;;;;;;;4.97;4.47;;;;;;;30.53;22.34;98991.69;4944634;28;20602;-79
2023/06/14 10:41:28;;;;;;;5.77;5.27;;;;;;;30.66;22.26;98979.72;4957496;28;20551;-77
2023/06/14 10:44:12;;;;;;;4.50;4.10;;;;;;;30.82;21.45;98984.38;4961293;28;20533;-78
2023/06/14 10:46:38;;;;;;;5.50;5.00;;;;;;;30.87;21.66;98983.63;4957526;28;20531;-79
2023/06/14 10:49:03;;;;;;;4.33;4.00;;;;;;;30.86;21.75;98976.56;4954084;28;20470;-78
2023/06/14 10:51:45;;;;;;;4.40;4.00;;;;;;;30.81;21.98;98976.47;4943375;28;20227;-79
2023/06/14 10:54:12;;;;;;;5.63;4.53;;;;;;;30.81;21.64;98976.47;4949103;28;20198;-78
2023/06/14 10:56:37;;;;;;;4.70;4.30;;;;;;;30.76;21.98;98979.06;4945734;28;20479;-78
2023/06/14 10:59:02;;;;;;;5.00;4.50;;;;;;;30.82;21.88;98978.13;4942543;28;20493;-77
2023/06/14 11:01:46;;;;;;;5.20;4.70;;;;;;;30.81;21.20;98966.47;4943568;28;20204;-79
2023/06/14 11:04:12;;;;;;;4.57;4.10;;;;;;;30.75;21.35;98977.41;4964513;28;20198;-77
2023/06/14 11:06:49;;;;;;;6.90;3.67;;;;;;;30.72;21.36;98978.72;4953032;28;20541;-78
2023/06/14 11:09:46;;;;;;;7.70;4.80;;;;;;;30.65;20.72;98984.31;4956017;28;20235;-79
2023/06/14 11:12:16;;;;;;;4.67;4.27;;;;;;;30.51;21.18;98988.38;4946126;28;20567;-80
2023/06/14 11:14:48;;;;;;;4.87;4.37;;;;;;;30.52;20.61;98976.50;4954869;28;20546;-78
2023/06/14 11:17:13;;;;;;;6.07;5.07;;;;;;;30.55;20.81;98977.88;4957021;28;20481;-80
2023/06/14 11:19:39;;;;;;;5.83;4.20;;;;;;;30.57;20.63;98981.16;4959767;28;20861;-83
2023/06/14 11:22:07;;;;;;;5.13;4.63;;;;;;;30.52;21.22;98984.63;4952891;28;20215;-85
2023/06/14 11:24:35;;;;;;;9.13;5.23;;;;;;;30.39;21.19;98974.88;4957291;28;20254;-80
2023/06/14 11:27:01;;;;;;;5.30;4.80;;;;;;;30.33;21.01;98967.75;4951295;28;20467;-83
2023/06/14 11:29:29;;;;;;;5.13;4.63;;;;;;;30.29;21.80;98958.44;4948364;28;20486;-83
2023/06/14 11:31:54;;;;;;;6.40;5.27;;;;;;;30.31;22.05;98959.03;4953773;28;20215;-83
2023/06/14 11:34:20;;;;;;;4.87;4.43;;;;;;;30.39;22.19;98950.50;4950408;28;21218;-80
2023/06/14 11:36:47;;;;;;;5.07;4.57;;;;;;;30.34;22.27;98960.44;4955261;28;20228;-81
2023/06/14 11:39:16;;;;;;;4.87;4.47;;;;;;;30.31;22.03;98959.03;4959163;28;20251;-86